Time;durP1;ratioP1;P1;durP2;ratioP2;P2;SDS_P1;SDS_P2;PMS_P1;PMS_P2;Temp;Humidity;BMP_temperature;BMP_pressure;BME280_temperature;BME280_humidity;BME280_pressure;Samples;Min_cycle;Max_cycle;Signal;HPM_P1;HPM_P2
2020/12/09 00:00:07;;;;;;;38.10;22.13;;;;;;;5.55;87.22;98377.91;5073255;28;20232;-67
2020/12/09 00:02:34;;;;;;;35.65;22.60;;;;;;;5.78;85.24;98385.44;5073322;28;20201;-67
2020/12/09 00:05:01;;;;;;;36.90;23.35;;;;;;;5.68;85.67;98383.41;5073320;28;20319;-67
2020/12/09 00:07:27;;;;;;;40.13;22.67;;;;;;;5.59;85.84;98385.66;5074912;28;20196;-67
2020/12/09 00:09:53;;;;;;;41.65;24.88;;;;;;;5.41;87.07;98389.38;5093510;28;20231;-67
2020/12/09 00:12:21;;;;;;;39.30;21.42;;;;;;;5.48;87.43;98385.41;5084652;28;20188;-67
2020/12/09 00:14:47;;;;;;;38.20;23.20;;;;;;;5.59;86.93;98391.00;5073130;28;20286;-67
2020/12/09 00:17:14;;;;;;;41.50;20.35;;;;;;;5.50;86.75;98388.84;5073111;28;20208;-66
2020/12/09 00:19:40;;;;;;;35.78;22.63;;;;;;;5.46;87.60;98384.63;5081738;28;20199;-67
2020/12/09 00:22:07;;;;;;;34.33;21.77;;;;;;;5.48;87.45;98393.41;5072813;28;20295;-67
2020/12/09 00:24:34;;;;;;;37.80;22.60;;;;;;;5.40;88.33;98390.31;5082226;28;20264;-67
2020/12/09 00:27:00;;;;;;;39.30;23.10;;;;;;;5.55;86.64;98389.44;5092791;28;20204;-67
2020/12/09 00:29:28;;;;;;;35.10;21.70;;;;;;;5.52;87.14;98389.63;5082347;28;20282;-67
2020/12/09 00:31:54;;;;;;;35.95;22.23;;;;;;;5.48;86.60;98387.22;5072391;28;20211;-67
2020/12/09 00:34:20;;;;;;;33.20;20.13;;;;;;;5.52;86.96;98383.44;5072912;28;20209;-67
2020/12/09 00:36:47;;;;;;;38.30;23.33;;;;;;;5.46;87.76;98391.78;5073066;28;20258;-66
2020/12/09 00:39:13;;;;;;;34.80;21.30;;;;;;;5.33;87.65;98396.94;5072688;28;20258;-67
2020/12/09 00:41:39;;;;;;;38.40;22.35;;;;;;;5.25;88.66;98397.38;5072486;28;20648;-66
2020/12/09 00:44:06;;;;;;;36.63;22.42;;;;;;;5.28;89.18;98401.69;5082601;28;20194;-67
2020/12/09 00:46:36;;;;;;;38.70;23.67;;;;;;;5.32;88.91;98395.22;5072236;28;20294;-67
2020/12/09 00:49:02;;;;;;;45.20;23.95;;;;;;;5.42;88.14;98399.09;5072107;28;20218;-67
2020/12/09 00:51:29;;;;;;;37.47;21.10;;;;;;;5.47;88.04;98398.81;5072557;28;20196;-68
2020/12/09 00:53:55;;;;;;;36.72;23.67;;;;;;;5.35;88.42;98406.56;5072328;28;20212;-66
2020/12/09 00:56:22;;;;;;;40.88;23.70;;;;;;;5.21;88.93;98406.50;5072192;28;20202;-67
2020/12/09 00:58:48;;;;;;;38.35;20.38;;;;;;;5.30;88.44;98405.13;5072323;28;20313;-67
2020/12/09 01:01:15;;;;;;;50.28;24.05;;;;;;;5.25;89.08;98413.38;5072069;28;20200;-67
2020/12/09 01:03:42;;;;;;;39.22;22.40;;;;;;;5.23;89.27;98404.59;5072361;28;20618;-67
2020/12/09 01:06:09;;;;;;;37.85;21.10;;;;;;;5.35;88.35;98411.06;5072009;28;20217;-66
2020/12/09 01:08:36;;;;;;;35.90;22.45;;;;;;;5.43;88.13;98406.16;5073373;28;20213;-67
2020/12/09 01:11:03;;;;;;;42.28;21.63;;;;;;;5.38;87.82;98405.53;5071059;28;20296;-67
2020/12/09 01:13:33;;;;;;;36.78;22.58;;;;;;;5.20;88.88;98410.97;5071434;28;20306;-66
2020/12/09 01:15:59;;;;;;;37.30;22.20;;;;;;;5.17;89.11;98419.13;5072337;28;20288;-66
2020/12/09 01:18:26;;;;;;;50.88;24.25;;;;;;;5.02;89.78;98417.31;5071704;28;20211;-67
2020/12/09 01:20:53;;;;;;;48.80;24.23;;;;;;;5.14;89.92;98426.47;5072306;28;20292;-67
2020/12/09 01:23:19;;;;;;;43.35;23.20;;;;;;;5.15;89.57;98426.34;5071808;28;20206;-67
2020/12/09 01:25:46;;;;;;;48.42;25.05;;;;;;;5.20;89.51;98426.09;5071750;28;20222;-66
2020/12/09 01:28:12;;;;;;;41.40;23.40;;;;;;;5.27;89.50;98429.28;5072063;28;20194;-67
2020/12/09 01:30:38;;;;;;;40.53;24.20;;;;;;;5.30;88.94;98435.34;5071601;28;20198;-67
2020/12/09 01:33:05;;;;;;;43.47;22.60;;;;;;;5.36;88.67;98440.34;5072027;28;20211;-66
2020/12/09 01:35:31;;;;;;;45.20;24.35;;;;;;;5.27;89.08;98443.53;5072199;28;20189;-67
2020/12/09 01:37:58;;;;;;;38.75;21.80;;;;;;;5.48;87.77;98445.94;5071617;28;20278;-67
2020/12/09 01:40:25;;;;;;;36.53;21.42;;;;;;;5.38;88.37;98451.81;5071664;28;20221;-67
2020/12/09 01:42:51;;;;;;;45.35;25.35;;;;;;;5.45;87.90;98447.00;5071167;28;20207;-66
2020/12/09 01:45:18;;;;;;;36.60;21.60;;;;;;;5.46;87.90;98451.38;5071715;28;20230;-67
2020/12/09 01:47:46;;;;;;;40.20;21.98;;;;;;;5.39;87.55;98450.00;5072397;28;20645;-67
2020/12/09 01:50:14;;;;;;;42.60;23.08;;;;;;;5.22;89.07;98456.22;5080776;28;20202;-67
2020/12/09 01:52:41;;;;;;;42.97;22.83;;;;;;;5.14;89.68;98458.47;5092006;28;20203;-67
2020/12/09 01:55:09;;;;;;;42.42;21.77;;;;;;;5.18;89.72;98458.22;5092327;28;20253;-67
2020/12/09 01:57:35;;;;;;;42.42;22.42;;;;;;;4.99;89.97;98462.81;5092247;28;20202;-66
2020/12/09 02:00:03;;;;;;;40.78;21.13;;;;;;;4.81;90.75;98465.50;5091842;28;20238;-66
2020/12/09 02:02:29;;;;;;;40.30;22.50;;;;;;;4.70;91.75;98457.22;5081715;28;20246;-66
2020/12/09 02:04:56;;;;;;;40.97;21.25;;;;;;;4.76;91.84;98458.72;5071466;28;20237;-66
2020/12/09 02:07:23;;;;;;;47.10;22.40;;;;;;;4.75;91.54;98463.19;5071977;28;20200;-66
2020/12/09 02:10:00;;;;;;;44.97;23.30;;;;;;;4.88;90.96;98465.19;5071755;28;20212;-66
2020/12/09 02:12:29;;;;;;;44.08;21.75;;;;;;;4.77;91.86;98463.09;5071110;28;20195;-67
2020/12/09 02:14:56;;;;;;;42.45;20.20;;;;;;;4.73;92.35;98470.41;5071547;28;20679;-66
2020/12/09 02:17:24;;;;;;;42.60;22.60;;;;;;;4.76;92.66;98472.91;5071808;28;20192;-66
2020/12/09 02:19:52;;;;;;;45.92;22.27;;;;;;;4.76;92.38;98474.72;5071373;28;20204;-66
2020/12/09 02:22:20;;;;;;;43.13;21.02;;;;;;;4.75;92.33;98483.66;5074410;28;20220;-66
2020/12/09 02:24:46;;;;;;;42.42;19.55;;;;;;;4.71;92.31;98484.75;5074961;28;20297;-66
2020/12/09 02:27:13;;;;;;;39.55;20.50;;;;;;;4.60;92.93;98482.66;5074999;28;20204;-66
2020/12/09 02:29:39;;;;;;;40.53;20.77;;;;;;;4.68;92.74;98487.56;5075298;28;20194;-65
2020/12/09 02:32:06;;;;;;;41.33;19.45;;;;;;;4.66;92.86;98492.13;5076458;28;20639;-66
2020/12/09 02:34:32;;;;;;;41.75;20.25;;;;;;;4.60;93.50;98485.31;5075026;28;20197;-66
2020/12/09 02:36:58;;;;;;;44.90;22.10;;;;;;;4.60;93.68;98485.31;5075131;28;20186;-66
2020/12/09 02:39:33;;;;;;;47.58;22.50;;;;;;;4.63;93.26;98489.63;5075120;28;20219;-67
2020/12/09 02:41:59;;;;;;;49.25;22.58;;;;;;;4.62;93.43;98486.09;5075117;28;20259;-67
2020/12/09 02:44:25;;;;;;;49.42;23.60;;;;;;;4.65;92.88;98485.06;5075255;28;20240;-67
2020/12/09 02:46:51;;;;;;;40.88;22.92;;;;;;;4.73;93.18;98490.88;5074899;28;20292;-66
2020/12/09 02:49:17;;;;;;;43.35;20.35;;;;;;;4.56;93.14;98484.59;5075188;28;20195;-65
2020/12/09 02:51:44;;;;;;;42.10;21.10;;;;;;;4.48;94.31;98484.16;5075180;28;20622;-66
2020/12/09 02:54:10;;;;;;;45.72;22.05;;;;;;;4.53;94.29;98479.44;5074528;28;20233;-67
2020/12/09 02:56:37;;;;;;;45.15;20.25;;;;;;;4.51;93.86;98481.31;5074852;28;20238;-67
2020/12/09 02:59:03;;;;;;;45.20;20.30;;;;;;;4.46;94.62;98491.34;5074666;28;20257;-65
2020/12/09 03:01:33;;;;;;;45.10;23.90;;;;;;;4.46;95.04;98490.50;5076216;28;20203;-66
2020/12/09 03:03:59;;;;;;;43.45;21.88;;;;;;;4.51;93.96;98496.44;5074441;28;20233;-66
2020/12/09 03:06:25;;;;;;;38.53;18.48;;;;;;;4.50;93.67;98489.38;5074448;28;20222;-66
2020/12/09 03:08:51;;;;;;;47.33;21.00;;;;;;;4.44;94.22;98492.38;5074068;28;20198;-66
2020/12/09 03:11:17;;;;;;;42.65;21.73;;;;;;;4.44;93.94;98492.38;5074526;28;20200;-67
2020/12/09 03:13:44;;;;;;;43.92;22.52;;;;;;;4.53;93.91;98499.91;5074077;28;20273;-67
2020/12/09 03:16:10;;;;;;;42.08;21.15;;;;;;;4.62;93.26;98499.44;5074429;28;20194;-67
2020/12/09 03:18:36;;;;;;;34.72;15.65;;;;;;;4.35;93.78;98499.88;5074579;28;20200;-67
2020/12/09 03:21:06;;;;;;;44.63;22.38;;;;;;;4.39;94.61;98506.78;5074151;28;20197;-67
2020/12/09 03:23:33;;;;;;;44.25;20.65;;;;;;;4.49;93.67;98515.19;5074088;28;20189;-66
2020/12/09 03:25:59;;;;;;;40.13;20.52;;;;;;;4.49;93.31;98512.50;5074279;28;20261;-66
2020/12/09 03:28:25;;;;;;;41.92;22.02;;;;;;;4.55;93.35;98514.03;5073847;28;20196;-66
2020/12/09 03:30:52;;;;;;;42.33;21.30;;;;;;;4.64;92.47;98516.22;5073694;28;20321;-66
2020/12/09 03:33:18;;;;;;;42.50;22.80;;;;;;;4.47;93.22;98517.06;5073018;28;20202;-66
2020/12/09 03:35:44;;;;;;;33.55;19.35;;;;;;;4.33;93.46;98507.09;5073787;28;20216;-67
2020/12/09 03:38:11;;;;;;;38.30;20.92;;;;;;;4.31;94.48;98510.78;5074271;28;20262;-67
2020/12/09 03:40:37;;;;;;;42.17;20.52;;;;;;;4.31;94.00;98511.63;5074019;28;20601;-66
2020/12/09 03:43:03;;;;;;;47.75;22.23;;;;;;;4.37;94.25;98510.47;5073651;28;20189;-67
2020/12/09 03:45:29;;;;;;;42.40;19.75;;;;;;;4.38;93.49;98514.84;5073927;28;20299;-66
2020/12/09 03:47:56;;;;;;;43.05;20.23;;;;;;;4.43;93.96;98509.28;5080898;28;20196;-66
2020/12/09 03:50:22;;;;;;;41.50;20.38;;;;;;;4.37;93.64;98518.47;5094095;28;20281;-67
2020/12/09 03:52:48;;;;;;;39.47;20.75;;;;;;;4.26;94.53;98519.00;5094056;28;20220;-68
2020/12/09 03:55:15;;;;;;;37.67;18.80;;;;;;;4.20;94.59;98521.97;5093629;28;20290;-67
2020/12/09 03:57:41;;;;;;;41.30;21.10;;;;;;;4.27;94.81;98525.19;5093634;28;20235;-67
2020/12/09 04:00:07;;;;;;;40.38;19.20;;;;;;;4.31;94.26;98530.28;5093299;28;20239;-67
2020/12/09 04:02:33;;;;;;;43.10;21.30;;;;;;;4.39;93.93;98528.13;5093483;28;20209;-67
2020/12/09 04:05:01;;;;;;;43.15;20.92;;;;;;;4.35;93.60;98529.19;5093751;28;20315;-67
2020/12/09 04:07:27;;;;;;;40.83;22.48;;;;;;;4.43;93.21;98534.13;5093874;28;20200;-67
2020/12/09 04:09:53;;;;;;;31.58;16.67;;;;;;;4.39;93.15;98532.59;5093705;28;20272;-67
2020/12/09 04:12:23;;;;;;;39.03;18.30;;;;;;;4.31;93.81;98542.75;5078630;28;20208;-66
2020/12/09 04:14:49;;;;;;;47.88;22.20;;;;;;;4.49;93.45;98546.31;5073395;28;20240;-66
2020/12/09 04:17:15;;;;;;;40.63;21.20;;;;;;;4.56;92.51;98547.72;5073083;28;20199;-66
2020/12/09 04:19:41;;;;;;;41.90;20.20;;;;;;;4.49;92.44;98547.16;5073954;28;20204;-67
2020/12/09 04:22:08;;;;;;;40.28;21.90;;;;;;;4.50;92.69;98543.56;5072908;28;20228;-67
2020/12/09 04:24:35;;;;;;;41.63;20.95;;;;;;;4.48;92.86;98540.13;5072975;28;20208;-67
2020/12/09 04:27:01;;;;;;;46.95;22.70;;;;;;;4.43;93.12;98536.81;5072974;28;20222;-67
2020/12/09 04:29:27;;;;;;;36.75;16.10;;;;;;;4.33;93.07;98543.53;5072687;28;20238;-67
2020/12/09 04:31:54;;;;;;;35.67;16.83;;;;;;;4.21;94.17;98545.00;5073182;28;20193;-67
2020/12/09 04:34:21;;;;;;;42.33;21.48;;;;;;;4.27;95.07;98558.03;5072795;28;20213;-67
2020/12/09 04:36:48;;;;;;;48.38;21.77;;;;;;;4.38;94.27;98549.50;5073019;28;21016;-67
2020/12/09 04:39:15;;;;;;;41.20;21.30;;;;;;;4.49;93.78;98560.50;5072986;28;20241;-67
2020/12/09 04:41:42;;;;;;;42.85;21.92;;;;;;;4.62;92.18;98550.09;5072427;28;20192;-67
2020/12/09 04:44:08;;;;;;;46.38;21.63;;;;;;;4.57;92.37;98554.78;5072714;28;20209;-67
2020/12/09 04:46:40;;;;;;;38.72;21.52;;;;;;;4.62;92.09;98550.09;5072823;28;20958;-67
2020/12/09 04:49:13;;;;;;;36.38;19.13;;;;;;;4.68;91.40;98547.13;5073424;28;20232;-67
2020/12/09 04:52:15;;;;;;;35.15;19.23;;;;;;;4.71;91.41;98544.28;5072541;28;20197;-66
2020/12/09 04:54:43;;;;;;;36.63;19.48;;;;;;;4.61;91.41;98551.00;5072257;28;20181;-66
2020/12/09 04:57:12;;;;;;;34.38;18.88;;;;;;;4.63;91.19;98551.78;5072239;28;20204;-66
2020/12/09 04:59:47;;;;;;;38.10;18.80;;;;;;;4.62;90.94;98558.09;5071944;28;20231;-67
2020/12/09 05:02:14;;;;;;;32.72;17.38;;;;;;;4.54;91.53;98558.44;5072548;28;20226;-67
2020/12/09 05:04:40;;;;;;;31.98;17.77;;;;;;;4.39;92.57;98568.09;5072078;28;20280;-66
2020/12/09 05:07:09;;;;;;;36.15;18.10;;;;;;;4.25;92.96;98562.59;5072213;28;20694;-66
2020/12/09 05:09:45;;;;;;;35.30;19.33;;;;;;;4.23;93.20;98567.13;5071448;28;20200;-66
2020/12/09 05:12:13;;;;;;;28.35;14.52;;;;;;;4.05;94.41;98568.00;5071810;28;20258;-66
2020/12/09 05:14:45;;;;;;;23.73;11.70;;;;;;;4.16;94.13;98576.31;5072159;28;20212;-68
2020/12/09 05:17:15;;;;;;;35.33;17.70;;;;;;;4.20;93.80;98577.06;5071903;28;20242;-67
2020/12/09 05:19:42;;;;;;;32.40;18.67;;;;;;;4.29;93.27;98582.78;5082470;28;20185;-67
2020/12/09 05:22:13;;;;;;;37.53;19.92;;;;;;;4.32;93.74;98581.78;5091800;28;20290;-67
2020/12/09 05:24:39;;;;;;;35.53;17.35;;;;;;;4.41;91.66;98588.47;5092222;28;20618;-67
2020/12/09 05:27:06;;;;;;;34.22;18.33;;;;;;;4.40;92.25;98587.59;5091694;28;20778;-67
2020/12/09 05:29:33;;;;;;;32.08;18.30;;;;;;;4.22;92.23;98605.34;5091858;28;20260;-66
2020/12/09 05:32:01;;;;;;;26.85;14.52;;;;;;;4.15;92.80;98602.09;5092469;28;20581;-67
2020/12/09 05:34:29;;;;;;;32.72;18.50;;;;;;;4.21;92.58;98600.97;5092228;28;20648;-67
2020/12/09 05:36:58;;;;;;;24.10;13.15;;;;;;;4.27;91.94;98603.31;5091719;28;20227;-67
2020/12/09 05:39:24;;;;;;;26.70;15.52;;;;;;;4.26;91.67;98606.94;5092448;28;20749;-66
2020/12/09 05:41:51;;;;;;;28.63;15.23;;;;;;;4.31;91.12;98615.56;5085326;28;20275;-66
2020/12/09 05:44:20;;;;;;;30.58;16.88;;;;;;;4.19;91.75;98608.16;5071934;28;20647;-66
2020/12/09 05:46:58;;;;;;;29.85;17.15;;;;;;;4.17;91.82;98615.38;5071788;28;20266;-67
2020/12/09 05:49:31;;;;;;;29.08;16.33;;;;;;;4.10;92.00;98617.47;5071786;28;20248;-66
2020/12/09 05:52:09;;;;;;;28.55;16.00;;;;;;;4.12;92.13;98615.59;5071886;28;20586;-66
2020/12/09 05:54:37;;;;;;;30.35;16.30;;;;;;;4.05;92.18;98608.84;5071866;28;20193;-66
2020/12/09 05:57:04;;;;;;;30.92;17.20;;;;;;;4.16;92.09;98617.19;5093248;28;20196;-66
2020/12/09 05:59:35;;;;;;;27.50;13.35;;;;;;;4.11;91.41;98616.50;5095556;28;20320;-66
2020/12/09 06:02:12;;;;;;;32.47;17.58;;;;;;;4.18;91.64;98625.97;5095810;28;20237;-67
2020/12/09 06:05:00;;;;;;;26.45;14.82;;;;;;;4.03;92.49;98633.81;5095206;28;20204;-67
2020/12/09 06:07:28;;;;;;;30.00;14.77;;;;;;;4.05;92.14;98638.13;5095784;28;20242;-67
2020/12/09 06:10:06;;;;;;;24.27;13.63;;;;;;;4.03;91.90;98636.47;5095740;28;20189;-66
2020/12/09 06:12:54;;;;;;;26.95;15.88;;;;;;;4.11;91.25;98643.16;5077520;28;20192;-67
2020/12/09 06:15:22;;;;;;;29.48;16.83;;;;;;;4.15;90.97;98641.22;5074593;28;20242;-67
2020/12/09 06:18:01;;;;;;;25.45;14.80;;;;;;;4.04;90.85;98649.72;5075305;28;20191;-66
2020/12/09 06:20:29;;;;;;;23.65;13.90;;;;;;;3.95;90.77;98644.81;5054659;28;20207;-66
2020/12/09 06:22:56;;;;;;;30.48;15.60;;;;;;;4.02;90.48;98653.38;5054959;28;20205;-67
2020/12/09 06:25:23;;;;;;;25.95;15.10;;;;;;;3.86;90.97;98656.75;5055110;28;20597;-67
2020/12/09 06:27:51;;;;;;;25.92;14.60;;;;;;;3.82;91.22;98652.53;5054892;28;20567;-67
2020/12/09 06:30:30;;;;;;;27.92;14.00;;;;;;;3.81;91.47;98652.59;5078215;28;20193;-68
2020/12/09 06:32:56;;;;;;;29.30;14.48;;;;;;;3.86;90.93;98651.41;5093748;28;20238;-66
2020/12/09 06:35:24;;;;;;;21.52;13.55;;;;;;;3.69;91.30;98649.53;5094782;28;20195;-67
2020/12/09 06:38:14;;;;;;;23.85;13.38;;;;;;;3.71;91.45;98649.47;5094723;28;20289;-68
2020/12/09 06:41:12;;;;;;;24.17;12.05;;;;;;;3.65;91.29;98660.41;5085052;28;20235;-67
2020/12/09 06:44:07;;;;;;;19.40;10.95;;;;;;;3.68;91.40;98654.91;5073907;28;20254;-67
2020/12/09 06:46:40;;;;;;;28.92;15.48;;;;;;;3.82;91.20;98663.16;5074444;28;20240;-66
2020/12/09 06:49:27;;;;;;;29.33;15.75;;;;;;;3.84;90.82;98663.06;5074202;28;20208;-66
2020/12/09 06:51:54;;;;;;;24.10;12.23;;;;;;;3.67;90.75;98670.03;5073944;28;20620;-67
2020/12/09 06:54:20;;;;;;;28.20;15.40;;;;;;;3.74;91.17;98674.16;5074137;28;20193;-67
2020/12/09 06:57:14;;;;;;;28.98;16.23;;;;;;;3.87;90.67;98674.47;5074627;28;21015;-66
2020/12/09 06:59:41;;;;;;;22.48;12.43;;;;;;;4.02;89.24;98677.34;5073883;28;20230;-67
2020/12/09 07:02:08;;;;;;;23.92;12.60;;;;;;;3.94;89.26;98678.56;5073999;28;20218;-67
2020/12/09 07:05:06;;;;;;;30.30;14.48;;;;;;;3.87;89.76;98670.94;5093750;28;20255;-65
2020/12/09 07:07:35;;;;;;;29.77;14.57;;;;;;;3.79;90.16;98665.94;5093286;28;20198;-66
2020/12/09 07:10:03;;;;;;;26.42;14.88;;;;;;;3.75;90.43;98661.69;5093751;28;20215;-67
2020/12/09 07:12:29;;;;;;;29.05;15.70;;;;;;;3.95;89.38;98672.31;5053640;28;20274;-68
2020/12/09 07:14:57;;;;;;;25.33;15.18;;;;;;;4.00;88.39;98664.09;5068364;28;20189;-67
2020/12/09 07:17:26;;;;;;;27.73;14.88;;;;;;;3.82;88.93;98663.16;5073685;28;20298;-68
2020/12/09 07:19:52;;;;;;;25.88;14.40;;;;;;;3.76;89.61;98674.09;5074264;28;20922;-67
2020/12/09 07:22:19;;;;;;;25.92;14.43;;;;;;;3.72;90.10;98669.84;5074059;28;20204;-68
2020/12/09 07:24:46;;;;;;;33.53;17.98;;;;;;;3.91;89.88;98669.84;5073646;28;20204;-68
2020/12/09 07:27:12;;;;;;;26.80;14.43;;;;;;;3.92;88.36;98684.91;5073421;28;20205;-67
2020/12/09 07:29:40;;;;;;;31.52;16.75;;;;;;;3.95;88.66;98690.94;5074986;28;20681;-67
2020/12/09 07:32:07;;;;;;;31.15;17.65;;;;;;;3.98;89.03;98687.31;5073936;28;20203;-67
2020/12/09 07:34:35;;;;;;;26.70;15.07;;;;;;;4.11;87.36;98674.25;5073892;28;20627;-67
2020/12/09 07:37:02;;;;;;;25.45;14.43;;;;;;;3.88;88.24;98670.84;5076382;28;20196;-67
2020/12/09 07:39:30;;;;;;;25.95;14.45;;;;;;;3.74;89.03;98670.63;5093731;28;20205;-68
2020/12/09 07:42:00;;;;;;;21.85;12.75;;;;;;;3.68;88.71;98679.75;5079826;28;20356;-67
2020/12/09 07:44:27;;;;;;;25.90;13.80;;;;;;;3.72;88.39;98697.31;5073151;28;20283;-67
2020/12/09 07:46:58;;;;;;;27.67;14.63;;;;;;;3.67;88.12;98709.13;5073482;28;20596;-67
2020/12/09 07:49:26;;;;;;;25.05;13.02;;;;;;;3.60;88.83;98699.69;5073428;28;20546;-67
2020/12/09 07:51:53;;;;;;;26.60;14.05;;;;;;;3.78;88.49;98705.94;5072755;28;20610;-67
2020/12/09 07:54:20;;;;;;;26.70;14.10;;;;;;;3.82;87.32;98704.88;5084071;28;20184;-67
2020/12/09 07:56:47;;;;;;;27.20;14.45;;;;;;;3.85;87.40;98716.28;5083950;28;20207;-67
2020/12/09 07:59:15;;;;;;;26.35;14.20;;;;;;;3.86;86.96;98717.13;5072414;28;20400;-68
2020/12/09 08:01:42;;;;;;;24.25;14.57;;;;;;;3.85;87.37;98726.94;5072604;28;20198;-67
2020/12/09 08:04:09;;;;;;;24.23;14.57;;;;;;;3.83;86.87;98709.31;5072572;28;20610;-67
2020/12/09 08:06:36;;;;;;;29.38;14.52;;;;;;;3.73;86.93;98717.69;5072169;28;20629;-66
2020/12/09 08:09:16;;;;;;;24.85;14.18;;;;;;;3.80;87.23;98717.41;5072970;28;20588;-67
2020/12/09 08:11:43;;;;;;;29.23;15.70;;;;;;;3.87;87.26;98734.88;5072292;28;20196;-68
2020/12/09 08:14:10;;;;;;;29.38;14.93;;;;;;;4.01;86.65;98736.91;5072900;28;20238;-68
2020/12/09 08:16:38;;;;;;;23.58;14.60;;;;;;;4.17;84.84;98740.59;5080650;28;20208;-69
2020/12/09 08:19:07;;;;;;;26.33;15.02;;;;;;;4.23;84.29;98742.09;5075870;28;20193;-68
2020/12/09 08:21:34;;;;;;;29.00;17.83;;;;;;;4.13;85.54;98754.97;5072410;28;20198;-68
2020/12/09 08:24:13;;;;;;;27.05;15.88;;;;;;;4.18;85.68;98760.97;5072276;28;20224;-66
2020/12/09 08:26:43;;;;;;;27.98;15.20;;;;;;;4.44;83.92;98765.09;5072439;28;20631;-68
2020/12/09 08:29:16;;;;;;;24.58;15.80;;;;;;;4.51;83.14;98768.34;5072249;28;20192;-66
2020/12/09 08:31:42;;;;;;;27.30;17.63;;;;;;;4.50;82.64;98769.28;5072652;28;20637;-66
2020/12/09 08:34:13;;;;;;;27.48;16.90;;;;;;;4.29;83.86;98777.31;5076069;28;20681;-67
2020/12/09 08:36:39;;;;;;;22.50;14.77;;;;;;;4.23;83.35;98774.97;5084922;28;20653;-67
2020/12/09 08:39:06;;;;;;;24.45;14.52;;;;;;;4.27;83.19;98781.00;5072101;28;20280;-66
2020/12/09 08:41:34;;;;;;;25.13;15.32;;;;;;;4.48;82.52;98788.03;5071869;28;20651;-67
2020/12/09 08:44:03;;;;;;;23.75;15.07;;;;;;;4.56;82.22;98787.66;5072219;28;20637;-67
2020/12/09 08:46:31;;;;;;;23.10;14.43;;;;;;;4.63;81.66;98798.91;5071788;28;20226;-67
2020/12/09 08:48:58;;;;;;;20.23;13.27;;;;;;;4.53;81.38;98798.47;5083912;28;20200;-66
2020/12/09 08:51:25;;;;;;;25.40;14.95;;;;;;;4.57;81.48;98805.41;5071758;28;20208;-67
2020/12/09 08:53:51;;;;;;;25.90;16.13;;;;;;;4.54;81.56;98798.38;5071946;28;20196;-66
2020/12/09 08:56:24;;;;;;;19.92;12.90;;;;;;;4.72;80.25;98783.31;5077265;28;20283;-67
2020/12/09 08:58:51;;;;;;;22.45;14.15;;;;;;;4.48;81.34;98784.50;5081934;28;20663;-67
2020/12/09 09:01:18;;;;;;;22.70;13.93;;;;;;;4.52;81.68;98772.72;5091712;28;20218;-67
2020/12/09 09:03:46;;;;;;;21.48;13.40;;;;;;;4.47;81.22;98772.09;5087609;28;20749;-67
2020/12/09 09:06:12;;;;;;;25.33;13.65;;;;;;;4.30;82.55;98772.88;5075739;28;20224;-66
2020/12/09 09:08:39;;;;;;;21.27;12.77;;;;;;;4.43;81.92;98773.16;5071587;28;20202;-65
2020/12/09 09:11:05;;;;;;;23.02;13.07;;;;;;;4.30;82.22;98765.75;5071415;28;20228;-67
2020/12/09 09:13:31;;;;;;;18.42;10.00;;;;;;;4.27;81.45;98768.53;5071976;28;20216;-66
2020/12/09 09:15:58;;;;;;;21.15;12.65;;;;;;;4.28;82.10;98767.63;5071535;28;20292;-67
2020/12/09 09:18:25;;;;;;;21.40;13.32;;;;;;;4.21;82.00;98771.50;5072063;28;20700;-67
2020/12/09 09:20:53;;;;;;;20.10;12.68;;;;;;;4.29;81.70;98774.66;5071561;28;20209;-67
2020/12/09 09:23:20;;;;;;;24.85;14.57;;;;;;;4.22;82.53;98761.69;5071420;28;20303;-67
2020/12/09 09:25:47;;;;;;;22.05;11.88;;;;;;;4.05;82.67;98766.00;5071361;28;20223;-66
2020/12/09 09:28:13;;;;;;;24.23;14.13;;;;;;;4.02;82.61;98763.44;5071317;28;20258;-66
2020/12/09 09:30:41;;;;;;;23.40;12.07;;;;;;;4.00;81.94;98759.13;5070680;28;20292;-67
2020/12/09 09:33:07;;;;;;;20.38;12.95;;;;;;;3.71;83.51;98759.50;5071086;28;20204;-66
2020/12/09 09:35:35;;;;;;;24.27;12.98;;;;;;;3.84;83.36;98761.59;5071115;28;20210;-68
2020/12/09 09:38:01;;;;;;;24.00;13.52;;;;;;;4.10;82.79;98771.13;5071321;28;20565;-67
2020/12/09 09:40:28;;;;;;;17.73;9.57;;;;;;;4.12;80.47;98764.78;5070929;28;20222;-66
2020/12/09 09:42:54;;;;;;;19.55;10.70;;;;;;;4.16;80.57;98770.81;5071675;28;20203;-66
2020/12/09 09:45:21;;;;;;;19.75;11.05;;;;;;;4.21;79.91;98765.31;5071095;28;20197;-67
2020/12/09 09:47:48;;;;;;;18.17;10.32;;;;;;;4.32;79.31;98779.88;5071192;28;20381;-68
2020/12/09 09:50:29;;;;;;;19.98;12.55;;;;;;;4.18;80.12;98779.59;5070575;28;20610;-66
2020/12/09 09:52:57;;;;;;;23.75;12.05;;;;;;;4.26;79.80;98774.81;5048705;28;20255;-66
2020/12/09 09:55:23;;;;;;;16.92;11.13;;;;;;;4.30;79.78;98776.41;5049069;28;20289;-66
2020/12/09 09:57:50;;;;;;;19.38;11.75;;;;;;;4.02;79.41;98787.41;5049382;28;20199;-67
2020/12/09 10:00:18;;;;;;;18.73;12.27;;;;;;;4.17;79.32;98793.88;5048807;28;20320;-67
2020/12/09 10:02:44;;;;;;;17.20;11.20;;;;;;;4.17;78.21;98789.41;5048698;28;20238;-67
2020/12/09 10:05:10;;;;;;;17.15;9.77;;;;;;;4.28;77.21;98796.94;5047795;28;20237;-66
2020/12/09 10:07:37;;;;;;;19.45;11.18;;;;;;;4.33;77.73;98789.56;5028802;28;20226;-66
2020/12/09 10:10:05;;;;;;;17.42;11.50;;;;;;;4.55;76.39;98788.59;5029028;28;20289;-66
2020/12/09 10:12:32;;;;;;;16.15;10.88;;;;;;;4.38;76.60;98784.91;5043433;28;20193;-67
2020/12/09 10:14:59;;;;;;;15.90;11.10;;;;;;;4.21;77.19;98789.28;5048642;28;20203;-68
2020/12/09 10:17:25;;;;;;;18.33;11.68;;;;;;;4.53;76.14;98791.34;5048789;28;20286;-66
2020/12/09 10:19:52;;;;;;;17.13;11.05;;;;;;;4.50;74.65;98787.94;5048422;28;20284;-67
2020/12/09 10:22:18;;;;;;;17.13;11.00;;;;;;;4.43;74.78;98791.81;5048663;28;20347;-65
2020/12/09 10:24:45;;;;;;;14.60;10.50;;;;;;;4.44;74.47;98789.09;5048722;28;20273;-67
2020/12/09 10:27:12;;;;;;;17.10;11.18;;;;;;;4.49;74.84;98792.41;5048784;28;20218;-67
2020/12/09 10:29:38;;;;;;;19.13;11.45;;;;;;;4.63;73.96;98799.75;5055728;28;20235;-67
2020/12/09 10:32:04;;;;;;;16.52;10.75;;;;;;;4.43;73.26;98789.16;5071028;28;20566;-65
2020/12/09 10:34:31;;;;;;;17.77;12.70;;;;;;;4.20;74.03;98793.72;5070842;28;20207;-66
2020/12/09 10:36:57;;;;;;;17.45;11.77;;;;;;;4.28;73.61;98796.94;5070201;28;20199;-67
2020/12/09 10:39:24;;;;;;;14.07;9.27;;;;;;;4.11;74.59;98792.34;5071957;28;20193;-66
2020/12/09 10:41:51;;;;;;;18.75;12.07;;;;;;;4.24;74.56;98795.34;5071056;28;20204;-66
2020/12/09 10:44:19;;;;;;;17.02;11.52;;;;;;;4.34;75.09;98794.00;5074387;28;20200;-67
2020/12/09 10:46:46;;;;;;;20.02;12.60;;;;;;;4.24;74.95;98786.47;5074510;28;20246;-67
2020/12/09 10:49:15;;;;;;;22.20;13.88;;;;;;;4.08;76.36;98786.31;5086661;28;20207;-68
2020/12/09 10:51:45;;;;;;;20.92;12.07;;;;;;;4.11;76.08;98786.16;5086210;28;20200;-66
2020/12/09 10:54:11;;;;;;;21.33;13.10;;;;;;;4.04;75.95;98785.56;5074073;28;20287;-67
2020/12/09 10:56:38;;;;;;;23.38;14.48;;;;;;;4.03;77.09;98791.84;5075441;28;20639;-66
2020/12/09 10:59:04;;;;;;;29.45;15.13;;;;;;;4.09;76.34;98782.69;5074255;28;20700;-66
2020/12/09 11:01:32;;;;;;;25.45;14.43;;;;;;;4.32;75.75;98782.53;5074295;28;20695;-67
2020/12/09 11:04:00;;;;;;;24.15;15.35;;;;;;;4.40;74.92;98776.84;5073791;28;20209;-67
2020/12/09 11:06:27;;;;;;;27.13;15.48;;;;;;;4.33;75.63;98778.91;5073150;28;20563;-69
2020/12/09 11:08:55;;;;;;;22.08;13.48;;;;;;;4.16;75.21;98784.13;5073712;28;20192;-66
2020/12/09 11:11:21;;;;;;;25.58;16.10;;;;;;;4.24;76.12;98775.81;5074005;28;20316;-67
2020/12/09 11:13:47;;;;;;;25.58;15.32;;;;;;;4.31;75.80;98775.47;5074058;28;20623;-68
2020/12/09 11:16:15;;;;;;;25.95;15.98;;;;;;;4.34;75.82;98779.78;5073480;28;20206;-69
2020/12/09 11:18:42;;;;;;;22.75;13.50;;;;;;;4.12;75.29;98779.91;5073673;28;20232;-68
2020/12/09 11:21:08;;;;;;;24.63;15.32;;;;;;;4.09;75.85;98778.25;5073870;28;20186;-68
2020/12/09 11:23:35;;;;;;;25.55;16.42;;;;;;;3.97;75.87;98773.44;5073686;28;20183;-67
2020/12/09 11:26:01;;;;;;;29.33;17.55;;;;;;;4.12;75.83;98779.91;5073904;28;20765;-68
2020/12/09 11:28:28;;;;;;;26.15;15.90;;;;;;;4.32;76.09;98769.22;5073601;28;20206;-68